sensor_id;sensor_type;location;lat;lon;timestamp;P1;durP1;ratioP1;P2;durP2;ratioP2
62911;SDS011;49111;51.028;4.218;2023-03-23T00:01:10;5.97;;;3.65;;
62911;SDS011;49111;51.028;4.218;2023-03-23T00:03:46;5.13;;;3.47;;
62911;SDS011;49111;51.028;4.218;2023-03-23T00:06:13;7.63;;;3.70;;
62911;SDS011;49111;51.028;4.218;2023-03-23T00:08:43;5.35;;;3.72;;
62911;SDS011;49111;51.028;4.218;2023-03-23T00:11:11;5.20;;;3.53;;
62911;SDS011;49111;51.028;4.218;2023-03-23T00:13:40;6.30;;;3.40;;
62911;SDS011;49111;51.028;4.218;2023-03-23T00:16:08;5.75;;;3.60;;
62911;SDS011;49111;51.028;4.218;2023-03-23T00:18:47;7.03;;;3.38;;
62911;SDS011;49111;51.028;4.218;2023-03-23T00:21:21;5.65;;;3.47;;
62911;SDS011;49111;51.028;4.218;2023-03-23T00:23:51;5.80;;;3.78;;
62911;SDS011;49111;51.028;4.218;2023-03-23T00:26:17;5.80;;;3.60;;
62911;SDS011;49111;51.028;4.218;2023-03-23T00:28:43;5.10;;;3.88;;
62911;SDS011;49111;51.028;4.218;2023-03-23T00:31:11;6.28;;;3.53;;
62911;SDS011;49111;51.028;4.218;2023-03-23T00:33:38;6.22;;;3.97;;
62911;SDS011;49111;51.028;4.218;2023-03-23T00:36:06;4.88;;;3.53;;
62911;SDS011;49111;51.028;4.218;2023-03-23T00:38:34;7.80;;;3.75;;
62911;SDS011;49111;51.028;4.218;2023-03-23T00:41:00;5.07;;;3.42;;
62911;SDS011;49111;51.028;4.218;2023-03-23T00:43:30;5.38;;;3.38;;
62911;SDS011;49111;51.028;4.218;2023-03-23T00:45:57;6.47;;;3.58;;
62911;SDS011;49111;51.028;4.218;2023-03-23T00:48:26;8.20;;;3.75;;
62911;SDS011;49111;51.028;4.218;2023-03-23T00:50:53;5.00;;;3.65;;
62911;SDS011;49111;51.028;4.218;2023-03-23T00:53:20;8.80;;;4.10;;
62911;SDS011;49111;51.028;4.218;2023-03-23T00:55:47;7.82;;;3.85;;
62911;SDS011;49111;51.028;4.218;2023-03-23T00:58:14;7.00;;;3.65;;
62911;SDS011;49111;51.028;4.218;2023-03-23T01:00:41;7.97;;;3.03;;
62911;SDS011;49111;51.028;4.218;2023-03-23T01:03:07;8.38;;;3.17;;
62911;SDS011;49111;51.028;4.218;2023-03-23T01:05:37;6.97;;;3.35;;
62911;SDS011;49111;51.028;4.218;2023-03-23T01:08:04;3.97;;;3.33;;
62911;SDS011;49111;51.028;4.218;2023-03-23T01:10:31;4.38;;;2.95;;
62911;SDS011;49111;51.028;4.218;2023-03-23T01:13:01;6.55;;;3.25;;
62911;SDS011;49111;51.028;4.218;2023-03-23T01:15:28;3.72;;;2.40;;
62911;SDS011;49111;51.028;4.218;2023-03-23T01:17:55;5.88;;;3.08;;
62911;SDS011;49111;51.028;4.218;2023-03-23T01:20:23;5.40;;;3.10;;
62911;SDS011;49111;51.028;4.218;2023-03-23T01:22:49;10.13;;;3.25;;
62911;SDS011;49111;51.028;4.218;2023-03-23T01:25:15;5.57;;;2.63;;
62911;SDS011;49111;51.028;4.218;2023-03-23T01:27:41;4.25;;;2.45;;
62911;SDS011;49111;51.028;4.218;2023-03-23T01:30:07;4.85;;;2.45;;
62911;SDS011;49111;51.028;4.218;2023-03-23T01:32:37;8.02;;;2.70;;
62911;SDS011;49111;51.028;4.218;2023-03-23T01:35:03;4.65;;;2.55;;
62911;SDS011;49111;51.028;4.218;2023-03-23T01:37:31;5.20;;;3.25;;
62911;SDS011;49111;51.028;4.218;2023-03-23T01:39:57;5.57;;;3.42;;
62911;SDS011;49111;51.028;4.218;2023-03-23T01:42:24;4.28;;;2.75;;
62911;SDS011;49111;51.028;4.218;2023-03-23T01:47:19;5.30;;;2.50;;
62911;SDS011;49111;51.028;4.218;2023-03-23T01:49:49;6.10;;;3.03;;
62911;SDS011;49111;51.028;4.218;2023-03-23T01:52:20;6.32;;;3.10;;
62911;SDS011;49111;51.028;4.218;2023-03-23T01:54:54;4.05;;;2.78;;
62911;SDS011;49111;51.028;4.218;2023-03-23T01:57:22;5.15;;;2.63;;
62911;SDS011;49111;51.028;4.218;2023-03-23T01:59:53;5.43;;;3.05;;
62911;SDS011;49111;51.028;4.218;2023-03-23T02:02:39;6.90;;;2.80;;
62911;SDS011;49111;51.028;4.218;2023-03-23T02:05:11;3.83;;;2.58;;
62911;SDS011;49111;51.028;4.218;2023-03-23T02:07:46;5.13;;;2.90;;
62911;SDS011;49111;51.028;4.218;2023-03-23T02:10:14;4.15;;;2.47;;
62911;SDS011;49111;51.028;4.218;2023-03-23T02:12:41;3.70;;;1.70;;
62911;SDS011;49111;51.028;4.218;2023-03-23T02:15:08;8.70;;;2.35;;
62911;SDS011;49111;51.028;4.218;2023-03-23T02:17:44;3.92;;;2.10;;
62911;SDS011;49111;51.028;4.218;2023-03-23T02:20:40;3.58;;;2.15;;
62911;SDS011;49111;51.028;4.218;2023-03-23T02:26:00;4.95;;;1.73;;
62911;SDS011;49111;51.028;4.218;2023-03-23T02:31:22;3.13;;;2.05;;
62911;SDS011;49111;51.028;4.218;2023-03-23T02:33:55;2.70;;;1.35;;
62911;SDS011;49111;51.028;4.218;2023-03-23T02:36:30;4.75;;;1.73;;
62911;SDS011;49111;51.028;4.218;2023-03-23T02:39:29;3.55;;;2.00;;
62911;SDS011;49111;51.028;4.218;2023-03-23T02:42:04;3.42;;;1.65;;
62911;SDS011;49111;51.028;4.218;2023-03-23T02:44:32;6.20;;;1.67;;
62911;SDS011;49111;51.028;4.218;2023-03-23T02:47:02;4.32;;;1.73;;
62911;SDS011;49111;51.028;4.218;2023-03-23T02:49:31;3.45;;;1.73;;
62911;SDS011;49111;51.028;4.218;2023-03-23T02:52:02;5.20;;;1.73;;
62911;SDS011;49111;51.028;4.218;2023-03-23T02:57:00;4.38;;;1.50;;
62911;SDS011;49111;51.028;4.218;2023-03-23T02:59:29;3.90;;;1.65;;
62911;SDS011;49111;51.028;4.218;2023-03-23T03:01:58;2.03;;;1.63;;
62911;SDS011;49111;51.028;4.218;2023-03-23T03:04:29;3.47;;;1.30;;
62911;SDS011;49111;51.028;4.218;2023-03-23T03:09:31;4.40;;;2.00;;
62911;SDS011;49111;51.028;4.218;2023-03-23T03:12:10;4.25;;;1.15;;
62911;SDS011;49111;51.028;4.218;2023-03-23T03:15:06;3.65;;;1.48;;
62911;SDS011;49111;51.028;4.218;2023-03-23T03:17:42;3.17;;;1.20;;
62911;SDS011;49111;51.028;4.218;2023-03-23T03:20:17;3.95;;;1.50;;
62911;SDS011;49111;51.028;4.218;2023-03-23T03:22:44;3.65;;;1.50;;
62911;SDS011;49111;51.028;4.218;2023-03-23T03:25:13;3.20;;;1.20;;
62911;SDS011;49111;51.028;4.218;2023-03-23T03:27:41;3.13;;;1.73;;
62911;SDS011;49111;51.028;4.218;2023-03-23T03:30:20;5.68;;;1.85;;
62911;SDS011;49111;51.028;4.218;2023-03-23T03:32:50;5.57;;;1.30;;
62911;SDS011;49111;51.028;4.218;2023-03-23T03:35:22;4.45;;;1.48;;
62911;SDS011;49111;51.028;4.218;2023-03-23T03:37:49;2.58;;;1.25;;
62911;SDS011;49111;51.028;4.218;2023-03-23T03:40:17;3.00;;;1.50;;
62911;SDS011;49111;51.028;4.218;2023-03-23T03:42:45;4.47;;;1.30;;
62911;SDS011;49111;51.028;4.218;2023-03-23T03:45:14;5.70;;;1.70;;
62911;SDS011;49111;51.028;4.218;2023-03-23T03:47:42;3.92;;;1.70;;
62911;SDS011;49111;51.028;4.218;2023-03-23T03:50:08;3.30;;;1.40;;
62911;SDS011;49111;51.028;4.218;2023-03-23T03:52:35;1.55;;;1.20;;
62911;SDS011;49111;51.028;4.218;2023-03-23T03:55:04;3.00;;;1.30;;
62911;SDS011;49111;51.028;4.218;2023-03-23T03:57:32;3.83;;;1.42;;
62911;SDS011;49111;51.028;4.218;2023-03-23T04:00:17;3.50;;;1.50;;
62911;SDS011;49111;51.028;4.218;2023-03-23T04:02:46;3.08;;;1.25;;
62911;SDS011;49111;51.028;4.218;2023-03-23T04:05:17;5.80;;;2.25;;
62911;SDS011;49111;51.028;4.218;2023-03-23T04:07:47;3.65;;;1.05;;
62911;SDS011;49111;51.028;4.218;2023-03-23T04:10:18;5.20;;;1.73;;
62911;SDS011;49111;51.028;4.218;2023-03-23T04:12:50;3.92;;;1.33;;
62911;SDS011;49111;51.028;4.218;2023-03-23T04:15:43;7.50;;;1.45;;
62911;SDS011;49111;51.028;4.218;2023-03-23T04:18:11;4.70;;;1.90;;
62911;SDS011;49111;51.028;4.218;2023-03-23T04:20:38;4.88;;;2.65;;
62911;SDS011;49111;51.028;4.218;2023-03-23T04:23:05;6.15;;;1.45;;
62911;SDS011;49111;51.028;4.218;2023-03-23T04:25:33;3.33;;;1.30;;
62911;SDS011;49111;51.028;4.218;2023-03-23T04:28:01;9.32;;;1.70;;
62911;SDS011;49111;51.028;4.218;2023-03-23T04:30:32;3.42;;;1.15;;
62911;SDS011;49111;51.028;4.218;2023-03-23T04:33:16;3.15;;;1.55;;
62911;SDS011;49111;51.028;4.218;2023-03-23T04:35:46;5.68;;;1.88;;
62911;SDS011;49111;51.028;4.218;2023-03-23T04:38:18;5.63;;;1.83;;
62911;SDS011;49111;51.028;4.218;2023-03-23T04:40:51;10.90;;;2.45;;
62911;SDS011;49111;51.028;4.218;2023-03-23T04:43:37;4.32;;;1.73;;
62911;SDS011;49111;51.028;4.218;2023-03-23T04:46:25;8.85;;;1.52;;
62911;SDS011;49111;51.028;4.218;2023-03-23T04:48:54;5.05;;;2.00;;
62911;SDS011;49111;51.028;4.218;2023-03-23T04:51:28;4.82;;;1.90;;
62911;SDS011;49111;51.028;4.218;2023-03-23T04:53:54;5.53;;;1.73;;
62911;SDS011;49111;51.028;4.218;2023-03-23T04:56:21;4.50;;;1.48;;
62911;SDS011;49111;51.028;4.218;2023-03-23T04:58:47;5.75;;;1.58;;
62911;SDS011;49111;51.028;4.218;2023-03-23T05:01:22;3.45;;;1.45;;
62911;SDS011;49111;51.028;4.218;2023-03-23T05:03:58;6.05;;;1.73;;
62911;SDS011;49111;51.028;4.218;2023-03-23T05:06:25;8.07;;;1.80;;
62911;SDS011;49111;51.028;4.218;2023-03-23T05:08:56;4.40;;;1.38;;
62911;SDS011;49111;51.028;4.218;2023-03-23T05:11:22;5.57;;;1.52;;
62911;SDS011;49111;51.028;4.218;2023-03-23T05:13:48;4.57;;;1.27;;
62911;SDS011;49111;51.028;4.218;2023-03-23T05:16:15;6.28;;;1.52;;
62911;SDS011;49111;51.028;4.218;2023-03-23T05:18:42;7.10;;;2.95;;
62911;SDS011;49111;51.028;4.218;2023-03-23T05:21:10;5.30;;;1.20;;
62911;SDS011;49111;51.028;4.218;2023-03-23T05:23:39;5.95;;;1.40;;
62911;SDS011;49111;51.028;4.218;2023-03-23T05:26:17;5.60;;;1.38;;
62911;SDS011;49111;51.028;4.218;2023-03-23T05:28:43;5.57;;;1.58;;
62911;SDS011;49111;51.028;4.218;2023-03-23T05:31:17;4.15;;;1.42;;
62911;SDS011;49111;51.028;4.218;2023-03-23T05:33:44;6.43;;;1.90;;
62911;SDS011;49111;51.028;4.218;2023-03-23T05:36:33;4.72;;;1.45;;
62911;SDS011;49111;51.028;4.218;2023-03-23T05:39:26;10.27;;;2.33;;
62911;SDS011;49111;51.028;4.218;2023-03-23T05:42:24;4.85;;;1.80;;
62911;SDS011;49111;51.028;4.218;2023-03-23T05:45:02;6.50;;;2.10;;
62911;SDS011;49111;51.028;4.218;2023-03-23T05:47:29;8.10;;;2.00;;
62911;SDS011;49111;51.028;4.218;2023-03-23T05:50:01;4.72;;;1.70;;
62911;SDS011;49111;51.028;4.218;2023-03-23T05:52:29;4.50;;;1.50;;
62911;SDS011;49111;51.028;4.218;2023-03-23T05:54:58;4.78;;;1.90;;
62911;SDS011;49111;51.028;4.218;2023-03-23T05:57:24;6.13;;;1.42;;
62911;SDS011;49111;51.028;4.218;2023-03-23T06:00:00;4.78;;;1.40;;
62911;SDS011;49111;51.028;4.218;2023-03-23T06:02:41;3.63;;;1.45;;
62911;SDS011;49111;51.028;4.218;2023-03-23T06:05:15;5.32;;;1.70;;
62911;SDS011;49111;51.028;4.218;2023-03-23T06:07:44;4.15;;;1.23;;
62911;SDS011;49111;51.028;4.218;2023-03-23T06:10:11;3.33;;;1.40;;
62911;SDS011;49111;51.028;4.218;2023-03-23T06:12:40;5.45;;;2.25;;
62911;SDS011;49111;51.028;4.218;2023-03-23T06:15:14;5.05;;;1.30;;
62911;SDS011;49111;51.028;4.218;2023-03-23T06:18:04;4.40;;;1.95;;
62911;SDS011;49111;51.028;4.218;2023-03-23T06:20:41;5.78;;;2.17;;
62911;SDS011;49111;51.028;4.218;2023-03-23T06:23:27;5.40;;;1.73;;
62911;SDS011;49111;51.028;4.218;2023-03-23T06:25:57;3.88;;;1.10;;
62911;SDS011;49111;51.028;4.218;2023-03-23T06:28:25;2.67;;;1.00;;
62911;SDS011;49111;51.028;4.218;2023-03-23T06:30:53;5.63;;;1.42;;
62911;SDS011;49111;51.028;4.218;2023-03-23T06:33:19;4.18;;;1.42;;
62911;SDS011;49111;51.028;4.218;2023-03-23T06:36:14;3.63;;;1.20;;
62911;SDS011;49111;51.028;4.218;2023-03-23T06:38:48;4.88;;;1.23;;
62911;SDS011;49111;51.028;4.218;2023-03-23T06:41:18;2.75;;;1.02;;
62911;SDS011;49111;51.028;4.218;2023-03-23T06:43:44;3.50;;;1.55;;
62911;SDS011;49111;51.028;4.218;2023-03-23T06:46:19;3.70;;;1.13;;
62911;SDS011;49111;51.028;4.218;2023-03-23T06:48:55;3.10;;;1.40;;
62911;SDS011;49111;51.028;4.218;2023-03-23T06:51:32;2.13;;;1.15;;
62911;SDS011;49111;51.028;4.218;2023-03-23T06:53:58;2.25;;;1.33;;
62911;SDS011;49111;51.028;4.218;2023-03-23T06:56:28;3.95;;;1.40;;
62911;SDS011;49111;51.028;4.218;2023-03-23T06:58:55;5.28;;;1.00;;
62911;SDS011;49111;51.028;4.218;2023-03-23T07:01:23;4.28;;;1.25;;
62911;SDS011;49111;51.028;4.218;2023-03-23T07:03:56;4.13;;;1.30;;
62911;SDS011;49111;51.028;4.218;2023-03-23T07:06:34;2.13;;;1.60;;
62911;SDS011;49111;51.028;4.218;2023-03-23T07:09:00;4.53;;;1.50;;
62911;SDS011;49111;51.028;4.218;2023-03-23T07:11:28;1.70;;;0.98;;
62911;SDS011;49111;51.028;4.218;2023-03-23T07:13:57;3.70;;;1.20;;
62911;SDS011;49111;51.028;4.218;2023-03-23T07:16:23;4.72;;;1.63;;
62911;SDS011;49111;51.028;4.218;2023-03-23T07:18:50;2.13;;;1.33;;
62911;SDS011;49111;51.028;4.218;2023-03-23T07:21:16;2.33;;;1.00;;
62911;SDS011;49111;51.028;4.218;2023-03-23T07:23:42;3.15;;;1.08;;
62911;SDS011;49111;51.028;4.218;2023-03-23T07:26:12;3.13;;;1.40;;
62911;SDS011;49111;51.028;4.218;2023-03-23T07:28:45;1.65;;;0.85;;
62911;SDS011;49111;51.028;4.218;2023-03-23T07:31:35;3.38;;;1.33;;
62911;SDS011;49111;51.028;4.218;2023-03-23T07:34:02;2.30;;;1.75;;
62911;SDS011;49111;51.028;4.218;2023-03-23T07:36:38;3.47;;;1.20;;
62911;SDS011;49111;51.028;4.218;2023-03-23T07:39:06;2.53;;;1.52;;
62911;SDS011;49111;51.028;4.218;2023-03-23T07:41:32;3.33;;;1.33;;
62911;SDS011;49111;51.028;4.218;2023-03-23T07:44:02;5.63;;;1.30;;
62911;SDS011;49111;51.028;4.218;2023-03-23T07:46:33;6.35;;;1.85;;
62911;SDS011;49111;51.028;4.218;2023-03-23T07:49:09;3.85;;;1.35;;
62911;SDS011;49111;51.028;4.218;2023-03-23T07:51:40;5.25;;;1.30;;
62911;SDS011;49111;51.028;4.218;2023-03-23T07:54:09;2.22;;;1.02;;
62911;SDS011;49111;51.028;4.218;2023-03-23T07:56:47;2.47;;;1.23;;
62911;SDS011;49111;51.028;4.218;2023-03-23T07:59:21;2.92;;;1.50;;
62911;SDS011;49111;51.028;4.218;2023-03-23T08:01:47;3.30;;;1.20;;
62911;SDS011;49111;51.028;4.218;2023-03-23T08:04:39;1.80;;;1.48;;
62911;SDS011;49111;51.028;4.218;2023-03-23T08:07:24;4.20;;;1.67;;
62911;SDS011;49111;51.028;4.218;2023-03-23T08:09:58;2.35;;;1.13;;
62911;SDS011;49111;51.028;4.218;2023-03-23T08:12:45;4.60;;;1.40;;
62911;SDS011;49111;51.028;4.218;2023-03-23T08:15:17;3.78;;;1.50;;
62911;SDS011;49111;51.028;4.218;2023-03-23T08:18:09;4.07;;;1.02;;
62911;SDS011;49111;51.028;4.218;2023-03-23T08:21:05;3.13;;;1.00;;
62911;SDS011;49111;51.028;4.218;2023-03-23T08:23:56;3.90;;;1.83;;
62911;SDS011;49111;51.028;4.218;2023-03-23T08:26:41;5.13;;;2.05;;
62911;SDS011;49111;51.028;4.218;2023-03-23T08:29:22;3.47;;;1.60;;
62911;SDS011;49111;51.028;4.218;2023-03-23T08:31:48;5.28;;;1.80;;
62911;SDS011;49111;51.028;4.218;2023-03-23T08:34:40;2.45;;;1.50;;
62911;SDS011;49111;51.028;4.218;2023-03-23T08:37:25;2.90;;;1.38;;
62911;SDS011;49111;51.028;4.218;2023-03-23T08:40:11;3.83;;;1.70;;
62911;SDS011;49111;51.028;4.218;2023-03-23T08:42:48;4.85;;;1.98;;
62911;SDS011;49111;51.028;4.218;2023-03-23T08:45:33;5.60;;;1.50;;
62911;SDS011;49111;51.028;4.218;2023-03-23T08:48:04;6.57;;;2.70;;
62911;SDS011;49111;51.028;4.218;2023-03-23T08:50:32;6.38;;;1.48;;
62911;SDS011;49111;51.028;4.218;2023-03-23T08:53:14;4.50;;;1.33;;
62911;SDS011;49111;51.028;4.218;2023-03-23T08:55:43;4.05;;;1.58;;
62911;SDS011;49111;51.028;4.218;2023-03-23T08:58:19;4.18;;;1.58;;
62911;SDS011;49111;51.028;4.218;2023-03-23T09:01:03;3.50;;;1.45;;
62911;SDS011;49111;51.028;4.218;2023-03-23T09:03:43;5.95;;;1.80;;
62911;SDS011;49111;51.028;4.218;2023-03-23T09:06:28;3.35;;;1.90;;
62911;SDS011;49111;51.028;4.218;2023-03-23T09:08:54;3.50;;;2.05;;
62911;SDS011;49111;51.028;4.218;2023-03-23T09:11:24;4.75;;;1.60;;
62911;SDS011;49111;51.028;4.218;2023-03-23T09:13:50;6.10;;;1.60;;
62911;SDS011;49111;51.028;4.218;2023-03-23T09:16:15;5.38;;;1.67;;
62911;SDS011;49111;51.028;4.218;2023-03-23T09:18:41;5.47;;;2.20;;
62911;SDS011;49111;51.028;4.218;2023-03-23T09:21:07;5.03;;;2.00;;
62911;SDS011;49111;51.028;4.218;2023-03-23T09:23:34;3.40;;;1.95;;
62911;SDS011;49111;51.028;4.218;2023-03-23T09:26:00;10.88;;;2.60;;
62911;SDS011;49111;51.028;4.218;2023-03-23T09:28:27;7.35;;;2.72;;
62911;SDS011;49111;51.028;4.218;2023-03-23T09:30:56;7.40;;;2.47;;
62911;SDS011;49111;51.028;4.218;2023-03-23T09:33:24;5.45;;;2.00;;
62911;SDS011;49111;51.028;4.218;2023-03-23T09:35:51;2.65;;;1.55;;
62911;SDS011;49111;51.028;4.218;2023-03-23T09:38:17;7.47;;;3.55;;
62911;SDS011;49111;51.028;4.218;2023-03-23T09:43:34;5.35;;;2.60;;
62911;SDS011;49111;51.028;4.218;2023-03-23T09:48:52;3.88;;;1.70;;
62911;SDS011;49111;51.028;4.218;2023-03-23T09:51:44;5.05;;;1.83;;
62911;SDS011;49111;51.028;4.218;2023-03-23T09:54:34;6.22;;;1.85;;
62911;SDS011;49111;51.028;4.218;2023-03-23T09:59:35;5.03;;;2.13;;
62911;SDS011;49111;51.028;4.218;2023-03-23T10:04:46;3.55;;;1.40;;
62911;SDS011;49111;51.028;4.218;2023-03-23T10:07:18;2.00;;;1.30;;
62911;SDS011;49111;51.028;4.218;2023-03-23T10:09:58;4.07;;;1.27;;
62911;SDS011;49111;51.028;4.218;2023-03-23T10:12:36;2.83;;;1.80;;
62911;SDS011;49111;51.028;4.218;2023-03-23T10:15:17;2.47;;;1.63;;
62911;SDS011;49111;51.028;4.218;2023-03-23T10:25:54;7.13;;;2.40;;
62911;SDS011;49111;51.028;4.218;2023-03-23T10:28:36;5.88;;;2.00;;
62911;SDS011;49111;51.028;4.218;2023-03-23T10:31:07;3.83;;;2.10;;
62911;SDS011;49111;51.028;4.218;2023-03-23T10:41:36;7.38;;;2.55;;
62911;SDS011;49111;51.028;4.218;2023-03-23T10:44:09;6.85;;;2.58;;
62911;SDS011;49111;51.028;4.218;2023-03-23T10:46:45;4.28;;;2.13;;
62911;SDS011;49111;51.028;4.218;2023-03-23T10:49:41;6.10;;;1.90;;
62911;SDS011;49111;51.028;4.218;2023-03-23T10:52:25;5.75;;;2.50;;
62911;SDS011;49111;51.028;4.218;2023-03-23T10:55:02;5.68;;;2.28;;
62911;SDS011;49111;51.028;4.218;2023-03-23T10:57:37;8.60;;;2.58;;
62911;SDS011;49111;51.028;4.218;2023-03-23T11:00:06;3.53;;;1.95;;
62911;SDS011;49111;51.028;4.218;2023-03-23T11:02:44;7.68;;;2.30;;
62911;SDS011;49111;51.028;4.218;2023-03-23T11:05:23;5.63;;;2.58;;
62911;SDS011;49111;51.028;4.218;2023-03-23T11:07:56;9.40;;;3.08;;
62911;SDS011;49111;51.028;4.218;2023-03-23T11:10:33;8.10;;;3.08;;
62911;SDS011;49111;51.028;4.218;2023-03-23T11:13:01;4.28;;;2.67;;
62911;SDS011;49111;51.028;4.218;2023-03-23T11:15:32;7.25;;;2.25;;
62911;SDS011;49111;51.028;4.218;2023-03-23T11:18:10;6.05;;;2.90;;
62911;SDS011;49111;51.028;4.218;2023-03-23T11:20:43;10.25;;;2.55;;
62911;SDS011;49111;51.028;4.218;2023-03-23T11:26:08;11.00;;;2.42;;
62911;SDS011;49111;51.028;4.218;2023-03-23T11:28:35;8.13;;;2.20;;
62911;SDS011;49111;51.028;4.218;2023-03-23T11:31:07;8.35;;;2.63;;
62911;SDS011;49111;51.028;4.218;2023-03-23T11:33:37;6.43;;;2.40;;
62911;SDS011;49111;51.028;4.218;2023-03-23T11:38:42;7.82;;;2.38;;
62911;SDS011;49111;51.028;4.218;2023-03-23T11:41:10;8.88;;;2.83;;
62911;SDS011;49111;51.028;4.218;2023-03-23T11:43:41;13.63;;;6.65;;
62911;SDS011;49111;51.028;4.218;2023-03-23T11:46:32;18.48;;;9.27;;
62911;SDS011;49111;51.028;4.218;2023-03-23T11:49:04;4.10;;;1.90;;
62911;SDS011;49111;51.028;4.218;2023-03-23T11:51:46;5.72;;;2.25;;
62911;SDS011;49111;51.028;4.218;2023-03-23T11:57:06;7.43;;;2.20;;
62911;SDS011;49111;51.028;4.218;2023-03-23T11:59:34;6.82;;;2.30;;
62911;SDS011;49111;51.028;4.218;2023-03-23T12:19:17;2.38;;;1.90;;
62911;SDS011;49111;51.028;4.218;2023-03-23T12:22:12;6.15;;;2.58;;
62911;SDS011;49111;51.028;4.218;2023-03-23T12:27:48;4.55;;;1.60;;
62911;SDS011;49111;51.028;4.218;2023-03-23T12:30:31;4.28;;;2.05;;
62911;SDS011;49111;51.028;4.218;2023-03-23T12:39:08;3.80;;;1.50;;
62911;SDS011;49111;51.028;4.218;2023-03-23T12:44:25;5.13;;;1.83;;
62911;SDS011;49111;51.028;4.218;2023-03-23T12:49:56;8.13;;;2.03;;
62911;SDS011;49111;51.028;4.218;2023-03-23T12:55:45;5.43;;;1.60;;
62911;SDS011;49111;51.028;4.218;2023-03-23T12:58:19;6.03;;;1.77;;
62911;SDS011;49111;51.028;4.218;2023-03-23T13:01:06;3.88;;;1.42;;
62911;SDS011;49111;51.028;4.218;2023-03-23T13:03:39;8.38;;;1.77;;
62911;SDS011;49111;51.028;4.218;2023-03-23T13:06:21;3.90;;;1.80;;
62911;SDS011;49111;51.028;4.218;2023-03-23T13:09:49;4.05;;;1.75;;
62911;SDS011;49111;51.028;4.218;2023-03-23T13:12:04;3.58;;;1.40;;
62911;SDS011;49111;51.028;4.218;2023-03-23T13:17:34;5.90;;;1.63;;
62911;SDS011;49111;51.028;4.218;2023-03-23T13:20:22;6.00;;;1.70;;
62911;SDS011;49111;51.028;4.218;2023-03-23T13:28:19;6.75;;;2.15;;
62911;SDS011;49111;51.028;4.218;2023-03-23T13:33:44;7.35;;;2.10;;
62911;SDS011;49111;51.028;4.218;2023-03-23T13:36:13;6.93;;;2.10;;
62911;SDS011;49111;51.028;4.218;2023-03-23T13:38:49;5.68;;;2.00;;
62911;SDS011;49111;51.028;4.218;2023-03-23T13:41:17;6.68;;;1.90;;
62911;SDS011;49111;51.028;4.218;2023-03-23T13:43:45;2.78;;;1.60;;
62911;SDS011;49111;51.028;4.218;2023-03-23T13:46:12;7.95;;;1.88;;
62911;SDS011;49111;51.028;4.218;2023-03-23T13:49:15;8.43;;;1.95;;
62911;SDS011;49111;51.028;4.218;2023-03-23T13:56:43;3.72;;;2.40;;
62911;SDS011;49111;51.028;4.218;2023-03-23T14:01:53;5.90;;;1.70;;
62911;SDS011;49111;51.028;4.218;2023-03-23T14:04:20;3.72;;;1.50;;
62911;SDS011;49111;51.028;4.218;2023-03-23T14:06:49;6.00;;;1.88;;
62911;SDS011;49111;51.028;4.218;2023-03-23T14:09:29;8.88;;;1.98;;
62911;SDS011;49111;51.028;4.218;2023-03-23T14:12:02;7.95;;;1.70;;
62911;SDS011;49111;51.028;4.218;2023-03-23T14:14:39;8.40;;;2.40;;
62911;SDS011;49111;51.028;4.218;2023-03-23T14:17:11;4.15;;;1.40;;
62911;SDS011;49111;51.028;4.218;2023-03-23T14:19:50;5.00;;;1.95;;
62911;SDS011;49111;51.028;4.218;2023-03-23T14:22:41;5.57;;;1.55;;
62911;SDS011;49111;51.028;4.218;2023-03-23T14:25:11;6.72;;;2.00;;
62911;SDS011;49111;51.028;4.218;2023-03-23T14:27:42;7.72;;;1.95;;
62911;SDS011;49111;51.028;4.218;2023-03-23T14:30:14;4.40;;;1.77;;
62911;SDS011;49111;51.028;4.218;2023-03-23T14:32:45;6.68;;;2.08;;
62911;SDS011;49111;51.028;4.218;2023-03-23T14:35:33;6.43;;;1.90;;
62911;SDS011;49111;51.028;4.218;2023-03-23T14:37:59;6.40;;;1.95;;
62911;SDS011;49111;51.028;4.218;2023-03-23T14:40:26;5.97;;;2.13;;
62911;SDS011;49111;51.028;4.218;2023-03-23T14:42:53;6.18;;;2.28;;
62911;SDS011;49111;51.028;4.218;2023-03-23T14:45:20;6.15;;;1.70;;
62911;SDS011;49111;51.028;4.218;2023-03-23T14:47:48;4.72;;;2.13;;
62911;SDS011;49111;51.028;4.218;2023-03-23T14:53:25;8.13;;;2.20;;
62911;SDS011;49111;51.028;4.218;2023-03-23T14:55:59;6.95;;;2.00;;
62911;SDS011;49111;51.028;4.218;2023-03-23T14:58:48;8.48;;;2.10;;
62911;SDS011;49111;51.028;4.218;2023-03-23T15:01:26;7.18;;;1.90;;
62911;SDS011;49111;51.028;4.218;2023-03-23T15:06:33;7.38;;;2.20;;
62911;SDS011;49111;51.028;4.218;2023-03-23T15:09:02;9.20;;;2.10;;
62911;SDS011;49111;51.028;4.218;2023-03-23T15:11:39;8.35;;;2.53;;
62911;SDS011;49111;51.028;4.218;2023-03-23T15:14:17;6.93;;;2.10;;
62911;SDS011;49111;51.028;4.218;2023-03-23T15:16:46;9.25;;;2.25;;
62911;SDS011;49111;51.028;4.218;2023-03-23T15:19:16;8.32;;;2.40;;
62911;SDS011;49111;51.028;4.218;2023-03-23T15:24:21;9.45;;;2.38;;
62911;SDS011;49111;51.028;4.218;2023-03-23T15:27:18;11.77;;;3.25;;
62911;SDS011;49111;51.028;4.218;2023-03-23T15:29:59;9.73;;;2.67;;
62911;SDS011;49111;51.028;4.218;2023-03-23T15:32:41;10.85;;;2.50;;
62911;SDS011;49111;51.028;4.218;2023-03-23T15:35:27;11.63;;;3.38;;
62911;SDS011;49111;51.028;4.218;2023-03-23T15:38:03;6.40;;;2.67;;
62911;SDS011;49111;51.028;4.218;2023-03-23T15:40:35;8.95;;;2.28;;
62911;SDS011;49111;51.028;4.218;2023-03-23T15:43:06;10.55;;;2.42;;
62911;SDS011;49111;51.028;4.218;2023-03-23T15:45:56;6.75;;;2.28;;
62911;SDS011;49111;51.028;4.218;2023-03-23T15:48:25;9.32;;;2.15;;
62911;SDS011;49111;51.028;4.218;2023-03-23T15:50:52;6.88;;;2.75;;
62911;SDS011;49111;51.028;4.218;2023-03-23T15:53:37;6.32;;;2.08;;
62911;SDS011;49111;51.028;4.218;2023-03-23T15:56:04;4.82;;;2.17;;
62911;SDS011;49111;51.028;4.218;2023-03-23T15:58:31;6.68;;;3.00;;
62911;SDS011;49111;51.028;4.218;2023-03-23T16:00:59;9.95;;;2.63;;
62911;SDS011;49111;51.028;4.218;2023-03-23T16:03:29;9.07;;;2.65;;
62911;SDS011;49111;51.028;4.218;2023-03-23T16:06:04;8.00;;;3.05;;
62911;SDS011;49111;51.028;4.218;2023-03-23T16:08:30;6.38;;;2.53;;
62911;SDS011;49111;51.028;4.218;2023-03-23T16:10:56;6.25;;;2.53;;
62911;SDS011;49111;51.028;4.218;2023-03-23T16:13:22;6.13;;;2.40;;
62911;SDS011;49111;51.028;4.218;2023-03-23T16:15:48;11.05;;;2.30;;
62911;SDS011;49111;51.028;4.218;2023-03-23T16:18:18;9.82;;;2.85;;
62911;SDS011;49111;51.028;4.218;2023-03-23T16:20:49;8.65;;;2.70;;
62911;SDS011;49111;51.028;4.218;2023-03-23T16:23:15;7.47;;;2.22;;
62911;SDS011;49111;51.028;4.218;2023-03-23T16:25:42;7.60;;;2.92;;
62911;SDS011;49111;51.028;4.218;2023-03-23T16:28:09;11.63;;;3.97;;
62911;SDS011;49111;51.028;4.218;2023-03-23T16:30:37;7.82;;;3.58;;
62911;SDS011;49111;51.028;4.218;2023-03-23T16:33:03;9.57;;;2.60;;
62911;SDS011;49111;51.028;4.218;2023-03-23T16:35:29;7.78;;;3.22;;
62911;SDS011;49111;51.028;4.218;2023-03-23T16:37:56;11.43;;;2.55;;
62911;SDS011;49111;51.028;4.218;2023-03-23T16:40:23;7.85;;;2.85;;
62911;SDS011;49111;51.028;4.218;2023-03-23T16:42:49;7.95;;;2.20;;
62911;SDS011;49111;51.028;4.218;2023-03-23T16:45:15;7.40;;;2.47;;
62911;SDS011;49111;51.028;4.218;2023-03-23T16:47:42;7.97;;;2.85;;
62911;SDS011;49111;51.028;4.218;2023-03-23T16:50:09;8.88;;;3.28;;
62911;SDS011;49111;51.028;4.218;2023-03-23T16:52:38;5.97;;;2.58;;
62911;SDS011;49111;51.028;4.218;2023-03-23T16:55:06;8.32;;;2.38;;
62911;SDS011;49111;51.028;4.218;2023-03-23T16:57:33;9.60;;;2.58;;
62911;SDS011;49111;51.028;4.218;2023-03-23T17:00:03;7.93;;;2.10;;
62911;SDS011;49111;51.028;4.218;2023-03-23T17:02:30;9.68;;;2.60;;
62911;SDS011;49111;51.028;4.218;2023-03-23T17:04:57;4.65;;;1.80;;
62911;SDS011;49111;51.028;4.218;2023-03-23T17:07:23;8.70;;;2.30;;
62911;SDS011;49111;51.028;4.218;2023-03-23T17:09:49;7.57;;;2.40;;
62911;SDS011;49111;51.028;4.218;2023-03-23T17:12:15;8.15;;;1.90;;